sensor_id;sensor_type;location;lat;lon;timestamp;temperature;humidity
50586;DHT22;36542;51.700;8.846;2023-04-08T00:02:19;3.40;99.90
50586;DHT22;36542;51.700;8.846;2023-04-08T00:04:44;3.40;99.90
50586;DHT22;36542;51.700;8.846;2023-04-08T00:07:10;3.40;99.90
50586;DHT22;36542;51.700;8.846;2023-04-08T00:09:35;3.50;99.90
50586;DHT22;36542;51.700;8.846;2023-04-08T00:12:01;3.50;99.90
50586;DHT22;36542;51.700;8.846;2023-04-08T00:14:26;3.60;99.90
50586;DHT22;36542;51.700;8.846;2023-04-08T00:16:52;3.70;99.90
50586;DHT22;36542;51.700;8.846;2023-04-08T00:19:17;3.80;99.90
50586;DHT22;36542;51.700;8.846;2023-04-08T00:21:43;4.00;99.90
50586;DHT22;36542;51.700;8.846;2023-04-08T00:24:08;4.00;99.90
50586;DHT22;36542;51.700;8.846;2023-04-08T00:26:35;4.00;99.90
50586;DHT22;36542;51.700;8.846;2023-04-08T00:29:00;4.00;99.90
50586;DHT22;36542;51.700;8.846;2023-04-08T00:31:26;3.90;99.90
50586;DHT22;36542;51.700;8.846;2023-04-08T00:33:51;3.90;99.90
50586;DHT22;36542;51.700;8.846;2023-04-08T00:36:17;3.80;99.90
50586;DHT22;36542;51.700;8.846;2023-04-08T00:38:43;3.70;99.90
50586;DHT22;36542;51.700;8.846;2023-04-08T00:41:09;3.80;99.90
50586;DHT22;36542;51.700;8.846;2023-04-08T00:43:34;3.90;99.90
50586;DHT22;36542;51.700;8.846;2023-04-08T00:46:00;3.90;99.90
50586;DHT22;36542;51.700;8.846;2023-04-08T00:48:25;4.10;99.90
50586;DHT22;36542;51.700;8.846;2023-04-08T00:50:51;4.10;99.90
50586;DHT22;36542;51.700;8.846;2023-04-08T00:53:18;4.00;99.90
50586;DHT22;36542;51.700;8.846;2023-04-08T00:55:44;4.00;99.90
50586;DHT22;36542;51.700;8.846;2023-04-08T00:58:10;4.00;99.90
50586;DHT22;36542;51.700;8.846;2023-04-08T01:00:39;3.90;99.90
50586;DHT22;36542;51.700;8.846;2023-04-08T01:06:40;3.70;99.90
50586;DHT22;36542;51.700;8.846;2023-04-08T01:09:08;3.80;99.90
50586;DHT22;36542;51.700;8.846;2023-04-08T01:11:34;3.80;99.90
50586;DHT22;36542;51.700;8.846;2023-04-08T01:14:04;3.90;99.90
50586;DHT22;36542;51.700;8.846;2023-04-08T01:16:31;4.00;99.90
50586;DHT22;36542;51.700;8.846;2023-04-08T01:18:57;4.10;99.90
50586;DHT22;36542;51.700;8.846;2023-04-08T01:21:25;4.20;99.90
50586;DHT22;36542;51.700;8.846;2023-04-08T01:24:07;4.20;99.90
50586;DHT22;36542;51.700;8.846;2023-04-08T01:26:35;4.20;99.90
50586;DHT22;36542;51.700;8.846;2023-04-08T01:29:02;4.20;99.90
50586;DHT22;36542;51.700;8.846;2023-04-08T01:31:28;4.30;99.90
50586;DHT22;36542;51.700;8.846;2023-04-08T01:33:55;4.30;99.90
50586;DHT22;36542;51.700;8.846;2023-04-08T01:36:22;4.30;99.90
50586;DHT22;36542;51.700;8.846;2023-04-08T01:38:49;4.20;99.90
50586;DHT22;36542;51.700;8.846;2023-04-08T01:41:16;4.30;99.90
50586;DHT22;36542;51.700;8.846;2023-04-08T01:43:43;4.40;99.90
50586;DHT22;36542;51.700;8.846;2023-04-08T01:46:10;4.50;99.90
50586;DHT22;36542;51.700;8.846;2023-04-08T01:48:37;4.50;99.90
50586;DHT22;36542;51.700;8.846;2023-04-08T01:51:04;4.60;99.90
50586;DHT22;36542;51.700;8.846;2023-04-08T01:53:30;4.50;99.90
50586;DHT22;36542;51.700;8.846;2023-04-08T01:56:02;4.60;99.90
50586;DHT22;36542;51.700;8.846;2023-04-08T01:58:33;4.70;99.90
50586;DHT22;36542;51.700;8.846;2023-04-08T02:00:59;4.80;99.90
50586;DHT22;36542;51.700;8.846;2023-04-08T02:03:26;4.90;99.90
50586;DHT22;36542;51.700;8.846;2023-04-08T02:05:53;4.90;99.90
50586;DHT22;36542;51.700;8.846;2023-04-08T02:08:18;4.90;99.90
50586;DHT22;36542;51.700;8.846;2023-04-08T02:10:43;4.90;99.90
50586;DHT22;36542;51.700;8.846;2023-04-08T02:13:09;4.90;99.90
50586;DHT22;36542;51.700;8.846;2023-04-08T02:15:37;4.90;99.90
50586;DHT22;36542;51.700;8.846;2023-04-08T02:18:10;5.00;99.90
50586;DHT22;36542;51.700;8.846;2023-04-08T02:20:49;5.00;99.90
50586;DHT22;36542;51.700;8.846;2023-04-08T02:23:20;5.00;99.90
50586;DHT22;36542;51.700;8.846;2023-04-08T02:25:47;5.00;99.90
50586;DHT22;36542;51.700;8.846;2023-04-08T02:28:14;5.10;99.90
50586;DHT22;36542;51.700;8.846;2023-04-08T02:30:43;5.00;99.90
50586;DHT22;36542;51.700;8.846;2023-04-08T02:33:11;4.90;99.90
50586;DHT22;36542;51.700;8.846;2023-04-08T02:35:39;5.00;99.90
50586;DHT22;36542;51.700;8.846;2023-04-08T02:38:05;5.10;99.90
50586;DHT22;36542;51.700;8.846;2023-04-08T02:40:32;5.10;99.90
50586;DHT22;36542;51.700;8.846;2023-04-08T02:42:58;5.10;99.90
50586;DHT22;36542;51.700;8.846;2023-04-08T02:45:30;5.20;99.90
50586;DHT22;36542;51.700;8.846;2023-04-08T02:47:56;5.10;99.90
50586;DHT22;36542;51.700;8.846;2023-04-08T02:50:22;5.10;99.90
50586;DHT22;36542;51.700;8.846;2023-04-08T02:52:48;5.10;99.90
50586;DHT22;36542;51.700;8.846;2023-04-08T02:55:13;5.20;99.90
50586;DHT22;36542;51.700;8.846;2023-04-08T02:57:40;5.30;99.90
50586;DHT22;36542;51.700;8.846;2023-04-08T03:00:07;5.30;99.90
50586;DHT22;36542;51.700;8.846;2023-04-08T03:02:32;5.30;99.90
50586;DHT22;36542;51.700;8.846;2023-04-08T03:04:59;5.20;99.90
50586;DHT22;36542;51.700;8.846;2023-04-08T03:07:24;5.20;99.90
50586;DHT22;36542;51.700;8.846;2023-04-08T03:09:50;5.30;99.90
50586;DHT22;36542;51.700;8.846;2023-04-08T03:12:16;5.40;99.90
50586;DHT22;36542;51.700;8.846;2023-04-08T03:14:41;5.40;99.90
50586;DHT22;36542;51.700;8.846;2023-04-08T03:17:07;5.40;99.90
50586;DHT22;36542;51.700;8.846;2023-04-08T03:19:32;5.40;99.90
50586;DHT22;36542;51.700;8.846;2023-04-08T03:21:58;5.50;99.90
50586;DHT22;36542;51.700;8.846;2023-04-08T03:24:23;5.40;99.90
50586;DHT22;36542;51.700;8.846;2023-04-08T03:26:49;5.30;99.90
50586;DHT22;36542;51.700;8.846;2023-04-08T03:29:15;5.10;99.90
50586;DHT22;36542;51.700;8.846;2023-04-08T03:31:40;5.00;99.90
50586;DHT22;36542;51.700;8.846;2023-04-08T03:34:06;4.90;99.90
50586;DHT22;36542;51.700;8.846;2023-04-08T03:36:31;4.80;99.90
50586;DHT22;36542;51.700;8.846;2023-04-08T03:38:57;4.80;99.90
50586;DHT22;36542;51.700;8.846;2023-04-08T03:41:22;5.00;99.90
50586;DHT22;36542;51.700;8.846;2023-04-08T03:43:48;5.00;99.90
50586;DHT22;36542;51.700;8.846;2023-04-08T03:46:13;5.00;99.90
50586;DHT22;36542;51.700;8.846;2023-04-08T03:48:39;5.00;99.90
50586;DHT22;36542;51.700;8.846;2023-04-08T03:51:05;5.00;99.90
50586;DHT22;36542;51.700;8.846;2023-04-08T03:53:30;4.90;99.90
50586;DHT22;36542;51.700;8.846;2023-04-08T03:55:56;4.90;99.90
50586;DHT22;36542;51.700;8.846;2023-04-08T03:58:22;4.90;99.90
50586;DHT22;36542;51.700;8.846;2023-04-08T04:00:48;4.90;99.90
50586;DHT22;36542;51.700;8.846;2023-04-08T04:03:13;4.90;99.90
50586;DHT22;36542;51.700;8.846;2023-04-08T04:05:39;4.90;99.90
50586;DHT22;36542;51.700;8.846;2023-04-08T04:08:05;4.90;99.90
50586;DHT22;36542;51.700;8.846;2023-04-08T04:10:30;4.90;99.90
50586;DHT22;36542;51.700;8.846;2023-04-08T04:12:56;4.90;99.90
50586;DHT22;36542;51.700;8.846;2023-04-08T04:15:21;4.90;99.90
50586;DHT22;36542;51.700;8.846;2023-04-08T04:17:48;4.90;99.90
50586;DHT22;36542;51.700;8.846;2023-04-08T04:20:15;5.00;99.90
50586;DHT22;36542;51.700;8.846;2023-04-08T04:22:41;4.90;99.90
50586;DHT22;36542;51.700;8.846;2023-04-08T04:25:07;4.90;99.90
50586;DHT22;36542;51.700;8.846;2023-04-08T04:27:33;4.90;99.90
50586;DHT22;36542;51.700;8.846;2023-04-08T04:29:59;4.90;99.90
50586;DHT22;36542;51.700;8.846;2023-04-08T04:32:25;4.90;99.90
50586;DHT22;36542;51.700;8.846;2023-04-08T04:34:51;4.90;99.90
50586;DHT22;36542;51.700;8.846;2023-04-08T04:37:16;4.90;99.90
50586;DHT22;36542;51.700;8.846;2023-04-08T04:39:42;4.90;99.90
50586;DHT22;36542;51.700;8.846;2023-04-08T04:42:08;4.90;99.90
50586;DHT22;36542;51.700;8.846;2023-04-08T04:44:33;4.90;99.90
50586;DHT22;36542;51.700;8.846;2023-04-08T04:46:59;4.90;99.90
50586;DHT22;36542;51.700;8.846;2023-04-08T04:49:25;5.00;99.90
50586;DHT22;36542;51.700;8.846;2023-04-08T04:51:50;4.90;99.90
50586;DHT22;36542;51.700;8.846;2023-04-08T04:54:16;4.90;99.90
50586;DHT22;36542;51.700;8.846;2023-04-08T04:56:41;5.00;99.90
50586;DHT22;36542;51.700;8.846;2023-04-08T04:59:07;5.00;99.90
50586;DHT22;36542;51.700;8.846;2023-04-08T05:01:33;5.10;99.90
50586;DHT22;36542;51.700;8.846;2023-04-08T05:03:58;5.10;99.90
50586;DHT22;36542;51.700;8.846;2023-04-08T05:06:24;5.20;99.90
50586;DHT22;36542;51.700;8.846;2023-04-08T05:08:51;5.20;99.90
50586;DHT22;36542;51.700;8.846;2023-04-08T05:11:16;5.10;99.90
50586;DHT22;36542;51.700;8.846;2023-04-08T05:13:46;5.10;99.90
50586;DHT22;36542;51.700;8.846;2023-04-08T05:16:12;5.10;99.90
50586;DHT22;36542;51.700;8.846;2023-04-08T05:18:37;5.00;99.90
50586;DHT22;36542;51.700;8.846;2023-04-08T05:21:03;5.00;99.90
50586;DHT22;36542;51.700;8.846;2023-04-08T05:23:28;5.00;99.90
50586;DHT22;36542;51.700;8.846;2023-04-08T05:25:54;4.90;99.90
50586;DHT22;36542;51.700;8.846;2023-04-08T05:28:19;4.90;99.90
50586;DHT22;36542;51.700;8.846;2023-04-08T05:30:51;4.90;99.90
50586;DHT22;36542;51.700;8.846;2023-04-08T05:33:17;4.90;99.90
50586;DHT22;36542;51.700;8.846;2023-04-08T05:35:44;4.90;99.90
50586;DHT22;36542;51.700;8.846;2023-04-08T05:38:10;5.00;99.90
50586;DHT22;36542;51.700;8.846;2023-04-08T05:40:35;5.20;99.90
50586;DHT22;36542;51.700;8.846;2023-04-08T05:43:01;5.20;99.90
50586;DHT22;36542;51.700;8.846;2023-04-08T05:45:27;5.10;99.90
50586;DHT22;36542;51.700;8.846;2023-04-08T05:47:53;5.10;99.90
50586;DHT22;36542;51.700;8.846;2023-04-08T05:50:18;5.10;99.90
50586;DHT22;36542;51.700;8.846;2023-04-08T05:52:44;5.10;99.90
50586;DHT22;36542;51.700;8.846;2023-04-08T05:55:11;5.20;99.90
50586;DHT22;36542;51.700;8.846;2023-04-08T05:57:36;5.20;99.90
50586;DHT22;36542;51.700;8.846;2023-04-08T06:00:04;5.30;99.90
50586;DHT22;36542;51.700;8.846;2023-04-08T06:02:29;5.30;99.90
50586;DHT22;36542;51.700;8.846;2023-04-08T06:04:55;5.40;99.90
50586;DHT22;36542;51.700;8.846;2023-04-08T06:07:20;5.40;99.90
50586;DHT22;36542;51.700;8.846;2023-04-08T06:09:46;5.30;99.90
50586;DHT22;36542;51.700;8.846;2023-04-08T06:12:11;5.40;99.90
50586;DHT22;36542;51.700;8.846;2023-04-08T06:14:37;5.40;99.90
50586;DHT22;36542;51.700;8.846;2023-04-08T06:17:03;5.30;99.90
50586;DHT22;36542;51.700;8.846;2023-04-08T06:19:28;5.30;99.90
50586;DHT22;36542;51.700;8.846;2023-04-08T06:21:54;5.30;99.90
50586;DHT22;36542;51.700;8.846;2023-04-08T06:24:24;5.30;99.90
50586;DHT22;36542;51.700;8.846;2023-04-08T06:26:50;5.30;99.90
50586;DHT22;36542;51.700;8.846;2023-04-08T06:29:17;5.40;99.90
50586;DHT22;36542;51.700;8.846;2023-04-08T06:31:42;5.50;99.90
50586;DHT22;36542;51.700;8.846;2023-04-08T06:34:08;5.50;99.90
50586;DHT22;36542;51.700;8.846;2023-04-08T06:36:33;5.60;99.90
50586;DHT22;36542;51.700;8.846;2023-04-08T06:38:59;5.50;99.90
50586;DHT22;36542;51.700;8.846;2023-04-08T06:41:24;5.50;99.90
50586;DHT22;36542;51.700;8.846;2023-04-08T06:43:50;5.40;99.90
50586;DHT22;36542;51.700;8.846;2023-04-08T06:46:15;5.30;99.90
50586;DHT22;36542;51.700;8.846;2023-04-08T06:48:41;5.30;99.90
50586;DHT22;36542;51.700;8.846;2023-04-08T06:51:06;5.30;99.90
50586;DHT22;36542;51.700;8.846;2023-04-08T06:53:32;5.30;99.90
50586;DHT22;36542;51.700;8.846;2023-04-08T06:55:58;5.50;99.90
50586;DHT22;36542;51.700;8.846;2023-04-08T06:58:24;5.70;99.90
50586;DHT22;36542;51.700;8.846;2023-04-08T07:00:50;5.80;99.90
50586;DHT22;36542;51.700;8.846;2023-04-08T07:03:15;5.90;99.90
50586;DHT22;36542;51.700;8.846;2023-04-08T07:05:41;6.00;99.90
50586;DHT22;36542;51.700;8.846;2023-04-08T07:08:06;6.00;99.90
50586;DHT22;36542;51.700;8.846;2023-04-08T07:10:33;6.00;99.90
50586;DHT22;36542;51.700;8.846;2023-04-08T07:12:59;6.00;99.90
50586;DHT22;36542;51.700;8.846;2023-04-08T07:15:25;6.00;99.90
50586;DHT22;36542;51.700;8.846;2023-04-08T07:17:50;6.00;99.90
50586;DHT22;36542;51.700;8.846;2023-04-08T07:20:16;6.00;99.90
50586;DHT22;36542;51.700;8.846;2023-04-08T07:22:42;5.90;99.90
50586;DHT22;36542;51.700;8.846;2023-04-08T07:25:08;6.00;99.90
50586;DHT22;36542;51.700;8.846;2023-04-08T07:27:33;6.10;99.90
50586;DHT22;36542;51.700;8.846;2023-04-08T07:29:59;6.20;99.90
50586;DHT22;36542;51.700;8.846;2023-04-08T07:32:25;6.20;99.90
50586;DHT22;36542;51.700;8.846;2023-04-08T07:34:51;6.20;99.90
50586;DHT22;36542;51.700;8.846;2023-04-08T07:37:17;6.30;99.90
50586;DHT22;36542;51.700;8.846;2023-04-08T07:39:43;6.40;99.90
50586;DHT22;36542;51.700;8.846;2023-04-08T07:42:08;6.40;99.90
50586;DHT22;36542;51.700;8.846;2023-04-08T07:44:34;6.40;99.90
50586;DHT22;36542;51.700;8.846;2023-04-08T07:47:00;6.40;99.90
50586;DHT22;36542;51.700;8.846;2023-04-08T07:49:25;6.50;99.90
50586;DHT22;36542;51.700;8.846;2023-04-08T07:51:51;6.60;99.90
50586;DHT22;36542;51.700;8.846;2023-04-08T07:54:17;6.60;99.90
50586;DHT22;36542;51.700;8.846;2023-04-08T07:56:43;6.60;99.90
50586;DHT22;36542;51.700;8.846;2023-04-08T07:59:12;6.60;99.90
50586;DHT22;36542;51.700;8.846;2023-04-08T08:01:38;6.60;99.90
50586;DHT22;36542;51.700;8.846;2023-04-08T08:04:03;6.70;99.90
50586;DHT22;36542;51.700;8.846;2023-04-08T08:06:29;6.70;99.90
50586;DHT22;36542;51.700;8.846;2023-04-08T08:08:59;6.90;99.90
50586;DHT22;36542;51.700;8.846;2023-04-08T08:11:24;7.00;99.90
50586;DHT22;36542;51.700;8.846;2023-04-08T08:13:52;7.10;99.90
50586;DHT22;36542;51.700;8.846;2023-04-08T08:16:18;7.00;99.90
50586;DHT22;36542;51.700;8.846;2023-04-08T08:18:43;7.00;99.90
50586;DHT22;36542;51.700;8.846;2023-04-08T08:21:09;7.00;99.90
50586;DHT22;36542;51.700;8.846;2023-04-08T08:23:35;7.00;99.90
50586;DHT22;36542;51.700;8.846;2023-04-08T08:26:04;7.00;99.90
50586;DHT22;36542;51.700;8.846;2023-04-08T08:28:31;6.80;99.90
50586;DHT22;36542;51.700;8.846;2023-04-08T08:30:56;6.60;99.90
50586;DHT22;36542;51.700;8.846;2023-04-08T08:33:22;6.90;99.90
50586;DHT22;36542;51.700;8.846;2023-04-08T08:35:47;7.10;99.90
50586;DHT22;36542;51.700;8.846;2023-04-08T08:38:13;7.20;99.90
50586;DHT22;36542;51.700;8.846;2023-04-08T08:40:39;7.40;99.90
50586;DHT22;36542;51.700;8.846;2023-04-08T08:43:04;7.60;99.90
50586;DHT22;36542;51.700;8.846;2023-04-08T08:45:30;7.50;99.90
50586;DHT22;36542;51.700;8.846;2023-04-08T08:47:57;7.40;99.90
50586;DHT22;36542;51.700;8.846;2023-04-08T08:50:22;7.30;99.90
50586;DHT22;36542;51.700;8.846;2023-04-08T08:52:49;7.30;99.90
50586;DHT22;36542;51.700;8.846;2023-04-08T08:55:17;7.50;99.90
50586;DHT22;36542;51.700;8.846;2023-04-08T08:57:43;7.80;99.90
50586;DHT22;36542;51.700;8.846;2023-04-08T09:00:10;7.70;99.90
50586;DHT22;36542;51.700;8.846;2023-04-08T09:02:35;7.50;99.90
50586;DHT22;36542;51.700;8.846;2023-04-08T09:05:02;7.80;99.90
50586;DHT22;36542;51.700;8.846;2023-04-08T09:07:30;7.50;99.90
50586;DHT22;36542;51.700;8.846;2023-04-08T09:09:57;7.60;99.90
50586;DHT22;36542;51.700;8.846;2023-04-08T09:12:24;7.80;99.90
50586;DHT22;36542;51.700;8.846;2023-04-08T09:14:50;8.20;99.90
50586;DHT22;36542;51.700;8.846;2023-04-08T09:17:31;8.50;99.90
50586;DHT22;36542;51.700;8.846;2023-04-08T09:20:08;8.60;99.90
50586;DHT22;36542;51.700;8.846;2023-04-08T09:22:59;8.60;99.90
50586;DHT22;36542;51.700;8.846;2023-04-08T09:25:29;8.60;99.90
50586;DHT22;36542;51.700;8.846;2023-04-08T09:27:56;8.50;99.90
50586;DHT22;36542;51.700;8.846;2023-04-08T09:30:24;8.60;99.90
50586;DHT22;36542;51.700;8.846;2023-04-08T09:32:52;8.80;99.90
50586;DHT22;36542;51.700;8.846;2023-04-08T09:35:19;9.00;99.90
50586;DHT22;36542;51.700;8.846;2023-04-08T09:37:45;9.00;99.90
50586;DHT22;36542;51.700;8.846;2023-04-08T09:40:11;9.00;99.90
50586;DHT22;36542;51.700;8.846;2023-04-08T09:42:40;9.00;99.90
50586;DHT22;36542;51.700;8.846;2023-04-08T09:45:08;9.00;99.90
50586;DHT22;36542;51.700;8.846;2023-04-08T09:47:41;9.10;99.90
50586;DHT22;36542;51.700;8.846;2023-04-08T09:50:08;9.20;99.90
50586;DHT22;36542;51.700;8.846;2023-04-08T09:52:43;9.20;99.90
50586;DHT22;36542;51.700;8.846;2023-04-08T09:55:12;9.10;99.90
50586;DHT22;36542;51.700;8.846;2023-04-08T09:57:45;9.10;99.90
50586;DHT22;36542;51.700;8.846;2023-04-08T10:00:15;9.10;99.90
50586;DHT22;36542;51.700;8.846;2023-04-08T10:05:37;9.40;99.90
50586;DHT22;36542;51.700;8.846;2023-04-08T10:08:05;9.50;99.90
50586;DHT22;36542;51.700;8.846;2023-04-08T10:10:33;9.80;99.90
50586;DHT22;36542;51.700;8.846;2023-04-08T10:13:00;10.00;99.90
50586;DHT22;36542;51.700;8.846;2023-04-08T10:15:30;10.00;99.90
50586;DHT22;36542;51.700;8.846;2023-04-08T10:23:04;10.60;99.90
50586;DHT22;36542;51.700;8.846;2023-04-08T10:30:50;10.90;99.90
50586;DHT22;36542;51.700;8.846;2023-04-08T10:33:17;10.50;99.90
50586;DHT22;36542;51.700;8.846;2023-04-08T10:36:11;10.50;99.90
50586;DHT22;36542;51.700;8.846;2023-04-08T10:38:37;10.50;99.90
50586;DHT22;36542;51.700;8.846;2023-04-08T10:41:03;10.30;99.90
50586;DHT22;36542;51.700;8.846;2023-04-08T10:43:33;10.70;99.90
50586;DHT22;36542;51.700;8.846;2023-04-08T10:45:59;10.70;99.90
50586;DHT22;36542;51.700;8.846;2023-04-08T10:48:24;9.90;99.90
50586;DHT22;36542;51.700;8.846;2023-04-08T10:50:54;9.90;99.90
50586;DHT22;36542;51.700;8.846;2023-04-08T10:55:50;9.30;99.90
50586;DHT22;36542;51.700;8.846;2023-04-08T10:58:16;9.60;99.90
50586;DHT22;36542;51.700;8.846;2023-04-08T11:00:42;9.70;99.90
50586;DHT22;36542;51.700;8.846;2023-04-08T11:03:10;9.60;99.90
50586;DHT22;36542;51.700;8.846;2023-04-08T11:05:37;9.60;99.90
50586;DHT22;36542;51.700;8.846;2023-04-08T11:08:03;9.80;99.90
50586;DHT22;36542;51.700;8.846;2023-04-08T11:10:30;9.90;99.90
50586;DHT22;36542;51.700;8.846;2023-04-08T11:12:56;9.80;99.90
50586;DHT22;36542;51.700;8.846;2023-04-08T11:15:28;9.80;99.90
50586;DHT22;36542;51.700;8.846;2023-04-08T11:17:54;9.90;99.90
50586;DHT22;36542;51.700;8.846;2023-04-08T11:20:20;9.80;99.90
50586;DHT22;36542;51.700;8.846;2023-04-08T11:22:46;9.60;99.90
50586;DHT22;36542;51.700;8.846;2023-04-08T11:25:12;9.80;99.90
50586;DHT22;36542;51.700;8.846;2023-04-08T11:27:38;9.90;99.90
50586;DHT22;36542;51.700;8.846;2023-04-08T11:30:06;10.00;99.90
50586;DHT22;36542;51.700;8.846;2023-04-08T11:32:33;10.00;99.90
50586;DHT22;36542;51.700;8.846;2023-04-08T11:35:00;9.90;99.90
50586;DHT22;36542;51.700;8.846;2023-04-08T11:37:35;10.10;99.90
50586;DHT22;36542;51.700;8.846;2023-04-08T11:40:00;10.20;99.90
50586;DHT22;36542;51.700;8.846;2023-04-08T11:42:27;10.30;99.90
50586;DHT22;36542;51.700;8.846;2023-04-08T11:44:53;10.40;99.90
50586;DHT22;36542;51.700;8.846;2023-04-08T11:47:18;10.50;99.90
50586;DHT22;36542;51.700;8.846;2023-04-08T11:49:45;10.50;99.90
50586;DHT22;36542;51.700;8.846;2023-04-08T11:52:11;10.40;99.90
50586;DHT22;36542;51.700;8.846;2023-04-08T11:54:40;10.40;99.90
50586;DHT22;36542;51.700;8.846;2023-04-08T11:57:06;10.20;99.90
50586;DHT22;36542;51.700;8.846;2023-04-08T11:59:31;10.00;99.90
50586;DHT22;36542;51.700;8.846;2023-04-08T12:01:57;10.00;99.90
50586;DHT22;36542;51.700;8.846;2023-04-08T12:04:23;10.00;99.90
50586;DHT22;36542;51.700;8.846;2023-04-08T12:06:48;9.90;99.90
50586;DHT22;36542;51.700;8.846;2023-04-08T12:09:14;9.70;99.90
50586;DHT22;36542;51.700;8.846;2023-04-08T12:11:40;9.50;99.90
50586;DHT22;36542;51.700;8.846;2023-04-08T12:14:05;9.40;99.90
50586;DHT22;36542;51.700;8.846;2023-04-08T12:16:31;9.30;99.90
50586;DHT22;36542;51.700;8.846;2023-04-08T12:18:56;9.20;99.90
50586;DHT22;36542;51.700;8.846;2023-04-08T12:21:22;9.10;99.90
50586;DHT22;36542;51.700;8.846;2023-04-08T12:23:47;9.20;99.90
50586;DHT22;36542;51.700;8.846;2023-04-08T12:26:13;9.30;99.90
50586;DHT22;36542;51.700;8.846;2023-04-08T12:28:39;9.30;99.90
50586;DHT22;36542;51.700;8.846;2023-04-08T12:31:05;9.30;99.90
50586;DHT22;36542;51.700;8.846;2023-04-08T12:33:31;9.40;99.90
50586;DHT22;36542;51.700;8.846;2023-04-08T12:35:56;9.60;99.90
50586;DHT22;36542;51.700;8.846;2023-04-08T12:38:23;9.60;99.90
50586;DHT22;36542;51.700;8.846;2023-04-08T12:40:49;9.70;99.90
50586;DHT22;36542;51.700;8.846;2023-04-08T12:43:15;9.80;99.90
50586;DHT22;36542;51.700;8.846;2023-04-08T12:45:40;9.90;99.90
50586;DHT22;36542;51.700;8.846;2023-04-08T12:48:06;9.80;99.90
50586;DHT22;36542;51.700;8.846;2023-04-08T12:50:32;9.60;99.90
50586;DHT22;36542;51.700;8.846;2023-04-08T12:52:57;9.50;99.90
50586;DHT22;36542;51.700;8.846;2023-04-08T12:55:23;9.50;99.90
50586;DHT22;36542;51.700;8.846;2023-04-08T12:57:52;9.60;99.90
50586;DHT22;36542;51.700;8.846;2023-04-08T13:00:17;9.50;99.90
50586;DHT22;36542;51.700;8.846;2023-04-08T13:02:44;9.50;99.90
50586;DHT22;36542;51.700;8.846;2023-04-08T13:05:09;9.50;99.90
50586;DHT22;36542;51.700;8.846;2023-04-08T13:07:35;9.60;99.90
50586;DHT22;36542;51.700;8.846;2023-04-08T13:10:01;9.50;99.90
50586;DHT22;36542;51.700;8.846;2023-04-08T13:12:28;9.60;99.90
50586;DHT22;36542;51.700;8.846;2023-04-08T13:14:53;9.70;99.90
50586;DHT22;36542;51.700;8.846;2023-04-08T13:17:19;9.80;99.90
50586;DHT22;36542;51.700;8.846;2023-04-08T13:19:45;10.00;99.90
50586;DHT22;36542;51.700;8.846;2023-04-08T13:22:11;10.10;99.90
50586;DHT22;36542;51.700;8.846;2023-04-08T13:24:38;10.20;99.90
50586;DHT22;36542;51.700;8.846;2023-04-08T13:27:03;10.20;99.90
50586;DHT22;36542;51.700;8.846;2023-04-08T13:29:29;10.30;99.90
50586;DHT22;36542;51.700;8.846;2023-04-08T13:31:54;10.40;99.90
50586;DHT22;36542;51.700;8.846;2023-04-08T13:34:20;10.20;99.90
50586;DHT22;36542;51.700;8.846;2023-04-08T13:36:45;10.10;99.90
50586;DHT22;36542;51.700;8.846;2023-04-08T13:39:11;10.10;99.90
50586;DHT22;36542;51.700;8.846;2023-04-08T13:41:37;9.90;99.90
50586;DHT22;36542;51.700;8.846;2023-04-08T13:44:02;10.30;99.90
50586;DHT22;36542;51.700;8.846;2023-04-08T13:46:28;10.50;99.90
50586;DHT22;36542;51.700;8.846;2023-04-08T13:48:53;10.30;99.90
50586;DHT22;36542;51.700;8.846;2023-04-08T13:51:19;10.00;99.90
50586;DHT22;36542;51.700;8.846;2023-04-08T13:53:44;9.80;99.90
50586;DHT22;36542;51.700;8.846;2023-04-08T13:56:10;9.90;99.90
50586;DHT22;36542;51.700;8.846;2023-04-08T13:58:35;10.00;99.90
50586;DHT22;36542;51.700;8.846;2023-04-08T14:01:01;10.10;99.90
50586;DHT22;36542;51.700;8.846;2023-04-08T14:03:27;10.10;99.90
50586;DHT22;36542;51.700;8.846;2023-04-08T14:05:52;10.10;99.90
50586;DHT22;36542;51.700;8.846;2023-04-08T14:08:18;10.20;99.90
50586;DHT22;36542;51.700;8.846;2023-04-08T14:10:50;10.30;99.90
50586;DHT22;36542;51.700;8.846;2023-04-08T14:13:16;10.30;99.90
50586;DHT22;36542;51.700;8.846;2023-04-08T14:15:41;10.30;99.90
50586;DHT22;36542;51.700;8.846;2023-04-08T14:18:07;10.20;99.90
50586;DHT22;36542;51.700;8.846;2023-04-08T14:20:33;10.10;99.90
50586;DHT22;36542;51.700;8.846;2023-04-08T14:23:00;10.00;99.90
50586;DHT22;36542;51.700;8.846;2023-04-08T14:25:25;9.80;99.90
50586;DHT22;36542;51.700;8.846;2023-04-08T14:27:51;9.80;99.90
50586;DHT22;36542;51.700;8.846;2023-04-08T14:30:17;9.80;99.90
50586;DHT22;36542;51.700;8.846;2023-04-08T14:32:43;9.80;99.90
50586;DHT22;36542;51.700;8.846;2023-04-08T14:35:08;9.80;99.90
50586;DHT22;36542;51.700;8.846;2023-04-08T14:37:34;9.80;99.90
50586;DHT22;36542;51.700;8.846;2023-04-08T14:40:02;9.80;99.90
50586;DHT22;36542;51.700;8.846;2023-04-08T14:42:28;9.70;99.90
50586;DHT22;36542;51.700;8.846;2023-04-08T14:44:54;9.70;99.90
50586;DHT22;36542;51.700;8.846;2023-04-08T14:47:22;9.70;99.90
50586;DHT22;36542;51.700;8.846;2023-04-08T14:49:47;9.70;99.90
50586;DHT22;36542;51.700;8.846;2023-04-08T14:52:13;9.70;99.90
50586;DHT22;36542;51.700;8.846;2023-04-08T14:54:38;9.60;99.90
50586;DHT22;36542;51.700;8.846;2023-04-08T14:57:04;9.70;99.90
50586;DHT22;36542;51.700;8.846;2023-04-08T14:59:29;9.70;99.90
50586;DHT22;36542;51.700;8.846;2023-04-08T15:01:55;9.70;99.90
50586;DHT22;36542;51.700;8.846;2023-04-08T15:04:20;9.60;99.90
50586;DHT22;36542;51.700;8.846;2023-04-08T15:06:46;9.50;99.90
50586;DHT22;36542;51.700;8.846;2023-04-08T15:09:11;9.60;99.90
50586;DHT22;36542;51.700;8.846;2023-04-08T15:11:37;9.60;99.90
50586;DHT22;36542;51.700;8.846;2023-04-08T15:14:02;9.50;99.90
50586;DHT22;36542;51.700;8.846;2023-04-08T15:16:28;9.40;99.90
50586;DHT22;36542;51.700;8.846;2023-04-08T15:18:53;9.40;99.90
50586;DHT22;36542;51.700;8.846;2023-04-08T15:21:19;9.40;99.90
50586;DHT22;36542;51.700;8.846;2023-04-08T15:23:45;9.50;99.90
50586;DHT22;36542;51.700;8.846;2023-04-08T15:26:10;9.50;99.90
50586;DHT22;36542;51.700;8.846;2023-04-08T15:28:36;9.30;99.90
50586;DHT22;36542;51.700;8.846;2023-04-08T15:31:03;9.30;99.90
50586;DHT22;36542;51.700;8.846;2023-04-08T15:33:29;9.10;99.90
50586;DHT22;36542;51.700;8.846;2023-04-08T15:35:55;9.00;99.90
50586;DHT22;36542;51.700;8.846;2023-04-08T15:38:24;9.10;99.90
50586;DHT22;36542;51.700;8.846;2023-04-08T15:40:50;9.20;99.90
50586;DHT22;36542;51.700;8.846;2023-04-08T15:43:16;9.30;99.90
50586;DHT22;36542;51.700;8.846;2023-04-08T15:45:42;9.40;99.90
50586;DHT22;36542;51.700;8.846;2023-04-08T15:48:08;9.50;99.90
50586;DHT22;36542;51.700;8.846;2023-04-08T15:50:36;9.50;99.90
50586;DHT22;36542;51.700;8.846;2023-04-08T15:53:02;9.40;99.90
50586;DHT22;36542;51.700;8.846;2023-04-08T15:55:27;9.40;99.90
50586;DHT22;36542;51.700;8.846;2023-04-08T15:57:53;9.20;99.90
50586;DHT22;36542;51.700;8.846;2023-04-08T16:00:21;9.20;99.90